Oxford, Canada
Current Conditions -  °F | °C
As of 10:00 PM on Friday 19 Dec 2014 (Local Time) from CYQM Reporting Station
Overcast Overcast  
Wind Chill: -7°   Ceiling: 2500
Heat Index: -1°   Visibility: 15mi
Dew Point: -4°   Wind: 13mph
Humidity: 80%   Direction: 10°N
Pressure: 29.98"   Gusts: 18mph
Location:  45.73°N, 63.87°W
Report Text: CYQM 200200Z 01011G16KT 15SM OVC025 M01/M04 A2998 RMK SC8 SLP157
Loading
Personal Weather Stations






























Interactive Weather Map New forecast layout! Learn more

10-Day Weather Forecast

Advertisements
Track Severe Weather on mobile